createdAt,value
2022-09-03T00:00:56.884Z,99.90
2022-09-03T00:03:31.546Z,99.90
2022-09-03T00:06:10.938Z,99.90
2022-09-03T00:08:45.587Z,99.90
2022-09-03T00:11:21.088Z,99.90
2022-09-03T00:13:56.990Z,99.90
2022-09-03T00:16:31.797Z,99.90
2022-09-03T00:19:04.537Z,99.90
2022-09-03T00:21:44.077Z,99.90
2022-09-03T00:24:16.238Z,99.90
2022-09-03T00:26:49.194Z,99.90
2022-09-03T00:29:21.137Z,99.90
2022-09-03T00:31:54.909Z,99.90
2022-09-03T00:34:28.239Z,99.90
2022-09-03T00:36:57.013Z,99.90
2022-09-03T00:39:28.260Z,99.90
2022-09-03T00:42:10.611Z,99.90
2022-09-03T00:44:58.450Z,99.90
2022-09-03T00:47:37.255Z,99.90
2022-09-03T00:50:13.150Z,99.90
2022-09-03T00:52:52.864Z,99.90
2022-09-03T00:55:33.426Z,99.90
2022-09-03T00:58:22.280Z,99.90
2022-09-03T01:00:53.135Z,99.90
2022-09-03T01:03:33.725Z,99.90
2022-09-03T01:06:14.687Z,99.90
2022-09-03T01:09:04.692Z,99.90
2022-09-03T01:11:45.852Z,99.90
2022-09-03T01:14:22.417Z,99.90
2022-09-03T01:16:57.595Z,99.90
2022-09-03T01:19:58.717Z,99.90
2022-09-03T01:22:48.791Z,99.90
2022-09-03T01:25:32.509Z,99.90
2022-09-03T01:28:20.761Z,99.90
2022-09-03T01:30:58.713Z,99.90
2022-09-03T01:33:35.799Z,99.90
2022-09-03T01:36:12.807Z,99.90
2022-09-03T01:38:48.417Z,99.90
2022-09-03T01:41:46.519Z,99.90
2022-09-03T01:44:26.622Z,99.90
2022-09-03T01:47:04.596Z,99.90
2022-09-03T01:49:37.681Z,99.90
2022-09-03T01:52:14.887Z,99.90
2022-09-03T01:54:53.523Z,99.90
2022-09-03T01:57:42.608Z,99.90
2022-09-03T02:00:14.472Z,99.90
2022-09-03T02:02:48.202Z,99.90
2022-09-03T02:05:20.488Z,99.90
2022-09-03T02:07:52.063Z,99.90
2022-09-03T02:10:22.678Z,99.90
2022-09-03T02:12:55.735Z,99.90
2022-09-03T02:15:28.166Z,99.90
2022-09-03T02:18:03.066Z,99.90
2022-09-03T02:20:32.521Z,99.90
2022-09-03T02:23:01.631Z,99.90
2022-09-03T02:25:35.015Z,99.90
2022-09-03T02:28:05.287Z,99.90
2022-09-03T02:30:40.916Z,99.90
2022-09-03T02:33:09.594Z,99.90
2022-09-03T02:35:38.373Z,99.90
2022-09-03T02:38:14.549Z,99.90
2022-09-03T02:40:43.325Z,99.90
2022-09-03T02:43:16.650Z,99.90
2022-09-03T02:45:49.684Z,99.90
2022-09-03T02:48:24.238Z,99.90
2022-09-03T02:50:53.074Z,99.90
2022-09-03T02:53:21.904Z,99.90
2022-09-03T02:55:50.645Z,99.90
2022-09-03T02:58:19.457Z,99.90
2022-09-03T03:00:49.870Z,99.90
2022-09-03T03:03:18.529Z,99.90
2022-09-03T03:05:49.938Z,99.90
2022-09-03T03:08:21.796Z,99.90
2022-09-03T03:10:52.332Z,99.90
2022-09-03T03:13:20.965Z,99.90
2022-09-03T03:15:51.048Z,99.90
2022-09-03T03:18:20.736Z,99.90
2022-09-03T03:20:49.561Z,99.90
2022-09-03T03:23:18.250Z,99.90
2022-09-03T03:25:46.944Z,99.90
2022-09-03T03:28:15.741Z,99.90
2022-09-03T03:30:47.744Z,99.90
2022-09-03T03:33:17.912Z,99.90
2022-09-03T03:35:46.851Z,99.90
2022-09-03T03:38:15.506Z,99.90
2022-09-03T03:40:44.169Z,99.90
2022-09-03T03:43:12.726Z,99.90
2022-09-03T03:45:41.449Z,99.90
2022-09-03T03:48:10.078Z,99.90
2022-09-03T03:50:40.555Z,99.90
2022-09-03T03:53:09.151Z,99.90
2022-09-03T03:55:39.392Z,99.90
2022-09-03T03:58:07.997Z,99.90
2022-09-03T04:00:39.655Z,99.90
2022-09-03T04:03:08.425Z,99.90
2022-09-03T04:05:39.716Z,99.90
2022-09-03T04:08:16.415Z,99.90
2022-09-03T04:10:45.011Z,99.90
2022-09-03T04:13:13.694Z,99.90
2022-09-03T04:15:42.596Z,99.90
2022-09-03T04:18:11.219Z,99.90
2022-09-03T04:20:40.061Z,99.90
2022-09-03T04:23:08.704Z,99.90
2022-09-03T04:25:38.847Z,99.90
2022-09-03T04:28:07.424Z,99.90
2022-09-03T04:30:36.112Z,99.90
2022-09-03T04:33:04.949Z,99.90
2022-09-03T04:35:35.954Z,99.90
2022-09-03T04:38:06.026Z,99.90
2022-09-03T04:40:34.987Z,99.90
2022-09-03T04:43:05.621Z,99.90
2022-09-03T04:45:34.295Z,99.90
2022-09-03T04:48:04.261Z,99.90
2022-09-03T04:50:35.778Z,99.90
2022-09-03T04:53:08.110Z,99.90
2022-09-03T04:55:37.545Z,99.90
2022-09-03T04:58:09.230Z,99.90
2022-09-03T05:00:38.420Z,99.90
2022-09-03T05:03:07.099Z,99.90
2022-09-03T05:05:35.888Z,99.90
2022-09-03T05:08:06.019Z,99.90
2022-09-03T05:10:35.109Z,99.90
2022-09-03T05:13:06.108Z,99.90
2022-09-03T05:15:36.773Z,99.90
2022-09-03T05:18:05.737Z,99.90
2022-09-03T05:20:34.665Z,99.90
2022-09-03T05:23:05.247Z,99.90
2022-09-03T05:25:34.025Z,99.90
2022-09-03T05:28:03.226Z,99.90
2022-09-03T05:30:32.486Z,99.90
2022-09-03T05:33:02.654Z,99.90
2022-09-03T05:35:31.284Z,99.90
2022-09-03T05:38:01.909Z,99.90
2022-09-03T05:40:31.822Z,99.90
2022-09-03T05:43:00.384Z,99.90
2022-09-03T05:45:29.954Z,99.90
2022-09-03T05:48:03.599Z,99.90
2022-09-03T05:50:32.233Z,99.90
2022-09-03T05:53:00.989Z,99.90
2022-09-03T05:55:30.310Z,99.90
2022-09-03T05:57:58.909Z,99.90
2022-09-03T06:00:28.068Z,99.90
2022-09-03T06:02:58.605Z,99.90
2022-09-03T06:05:28.756Z,99.90
2022-09-03T06:07:57.426Z,99.90
2022-09-03T06:10:30.700Z,99.90
2022-09-03T06:13:04.158Z,99.90
2022-09-03T06:15:33.007Z,99.90
2022-09-03T06:18:01.710Z,99.90
2022-09-03T06:20:36.420Z,99.90
2022-09-03T06:23:05.928Z,99.90
2022-09-03T06:25:34.600Z,99.90
2022-09-03T06:28:03.804Z,99.90
2022-09-03T06:30:32.470Z,99.90
2022-09-03T06:33:01.238Z,99.90
2022-09-03T06:35:30.011Z,99.90
2022-09-03T06:38:06.730Z,99.90
2022-09-03T06:40:35.470Z,99.90
2022-09-03T06:43:04.049Z,99.90
2022-09-03T06:45:32.914Z,99.90
2022-09-03T06:48:01.598Z,99.90
2022-09-03T06:50:34.535Z,99.90
2022-09-03T06:53:06.602Z,99.90
2022-09-03T06:55:35.635Z,99.90
2022-09-03T06:58:04.236Z,99.90
2022-09-03T07:00:32.875Z,99.90
2022-09-03T07:03:03.933Z,99.90
2022-09-03T07:05:33.419Z,99.90
2022-09-03T07:08:03.257Z,99.90
2022-09-03T07:10:35.367Z,99.90
2022-09-03T07:13:04.255Z,99.90
2022-09-03T07:15:33.260Z,99.90
2022-09-03T07:18:02.875Z,99.90
2022-09-03T07:20:32.313Z,99.90
2022-09-03T07:23:00.965Z,99.90
2022-09-03T07:25:31.085Z,99.90
2022-09-03T07:28:01.388Z,99.90
2022-09-03T07:30:30.021Z,99.90
2022-09-03T07:33:02.553Z,99.90
2022-09-03T07:35:31.152Z,99.90
2022-09-03T07:37:59.721Z,99.90
2022-09-03T07:40:29.727Z,99.90
2022-09-03T07:43:04.962Z,99.90
2022-09-03T07:45:33.798Z,99.90
2022-09-03T07:48:02.658Z,99.90
2022-09-03T07:50:37.778Z,99.90
2022-09-03T07:53:06.606Z,99.90
2022-09-03T07:55:35.511Z,99.90
2022-09-03T07:58:05.796Z,99.90
2022-09-03T08:00:36.354Z,99.90
2022-09-03T08:03:08.598Z,99.90
2022-09-03T08:05:38.881Z,99.90
2022-09-03T08:08:07.973Z,99.90
2022-09-03T08:10:38.520Z,99.90
2022-09-03T08:13:11.726Z,99.90
2022-09-03T08:15:43.191Z,99.90
2022-09-03T08:18:12.655Z,99.90
2022-09-03T08:20:41.289Z,99.90
2022-09-03T08:23:09.979Z,99.30
2022-09-03T08:25:38.655Z,99.20
2022-09-03T08:28:08.614Z,99.60
2022-09-03T08:30:38.371Z,99.00
2022-09-03T08:33:07.410Z,97.90
2022-09-03T08:35:38.403Z,98.80
2022-09-03T08:38:09.075Z,97.50
2022-09-03T08:40:41.186Z,97.20
2022-09-03T08:43:17.712Z,96.50
2022-09-03T08:45:47.525Z,96.40
2022-09-03T08:48:25.903Z,96.80
2022-09-03T08:51:00.360Z,97.50
2022-09-03T08:53:37.822Z,96.20
2022-09-03T08:56:11.665Z,94.90
2022-09-03T08:58:44.438Z,95.10
2022-09-03T09:01:24.515Z,95.10
2022-09-03T09:04:03.761Z,95.30
2022-09-03T09:06:42.309Z,94.60
2022-09-03T09:09:32.157Z,95.40
2022-09-03T09:12:16.054Z,94.30
2022-09-03T09:14:53.690Z,92.90
2022-09-03T09:17:43.602Z,93.50
2022-09-03T09:20:20.634Z,93.00
2022-09-03T09:22:53.538Z,92.60
2022-09-03T09:25:24.530Z,92.70
2022-09-03T09:27:57.107Z,92.90
2022-09-03T09:30:27.826Z,92.80
2022-09-03T09:32:56.568Z,93.30
2022-09-03T09:35:25.968Z,92.10
2022-09-03T09:37:56.074Z,91.90
2022-09-03T09:40:34.060Z,91.30
2022-09-03T09:43:07.701Z,91.70
2022-09-03T09:45:40.998Z,91.80
2022-09-03T09:48:22.326Z,90.60
2022-09-03T09:50:51.166Z,90.30
2022-09-03T09:53:21.894Z,90.80
2022-09-03T09:55:55.745Z,91.20
2022-09-03T09:58:26.128Z,89.40
2022-09-03T10:01:03.406Z,90.20
2022-09-03T10:03:35.966Z,91.00
2022-09-03T10:06:21.460Z,89.40
2022-09-03T10:08:50.521Z,90.60
2022-09-03T10:11:23.874Z,90.40
2022-09-03T10:13:53.785Z,88.10
2022-09-03T10:16:29.075Z,90.20
2022-09-03T10:19:06.442Z,88.30
2022-09-03T10:21:43.344Z,87.50
2022-09-03T10:24:31.860Z,85.80
2022-09-03T10:27:00.533Z,88.00
2022-09-03T10:29:30.380Z,86.90
2022-09-03T10:32:23.343Z,86.30
2022-09-03T10:35:03.673Z,83.40
2022-09-03T10:37:41.196Z,82.80
2022-09-03T10:40:30.959Z,82.60
2022-09-03T10:43:16.134Z,83.90
2022-09-03T10:45:59.509Z,82.80
2022-09-03T10:48:50.369Z,82.40
2022-09-03T10:51:21.932Z,82.10
2022-09-03T10:54:06.513Z,81.60
2022-09-03T10:56:44.011Z,78.70
2022-09-03T10:59:30.888Z,78.70
2022-09-03T11:02:07.412Z,79.30
2022-09-03T11:04:49.537Z,79.20
2022-09-03T11:07:22.890Z,81.20
2022-09-03T11:09:56.736Z,80.70
2022-09-03T11:12:31.006Z,81.00
2022-09-03T11:15:06.080Z,80.50
2022-09-03T11:17:40.418Z,81.90
2022-09-03T11:20:16.460Z,81.90
2022-09-03T11:22:46.570Z,78.20
2022-09-03T11:25:19.289Z,76.60
2022-09-03T11:27:59.133Z,78.10
2022-09-03T11:30:38.602Z,78.10
2022-09-03T11:33:11.843Z,77.60
2022-09-03T11:35:43.909Z,79.50
2022-09-03T11:38:27.536Z,79.00
2022-09-03T11:41:02.766Z,79.50
2022-09-03T11:43:33.566Z,81.30
2022-09-03T11:46:12.064Z,75.50
2022-09-03T11:48:44.316Z,75.40
2022-09-03T11:51:32.386Z,76.00
2022-09-03T11:54:29.011Z,79.70
2022-09-03T11:57:15.024Z,76.30
2022-09-03T11:59:45.339Z,75.30
2022-09-03T12:02:28.252Z,75.70
2022-09-03T12:05:16.248Z,74.60
2022-09-03T12:08:09.074Z,74.30
2022-09-03T12:10:47.008Z,75.60
2022-09-03T12:13:38.512Z,74.90
2022-09-03T12:16:40.865Z,76.30
2022-09-03T12:19:16.794Z,76.40
2022-09-03T12:21:50.980Z,76.40
2022-09-03T12:24:23.672Z,76.40
2022-09-03T12:26:53.809Z,75.30
2022-09-03T12:29:27.855Z,75.80
2022-09-03T12:31:58.049Z,74.50
2022-09-03T12:34:27.549Z,76.70
2022-09-03T12:36:57.065Z,75.00
2022-09-03T12:42:23.842Z,76.10
2022-09-03T12:44:52.542Z,75.60
2022-09-03T12:47:38.588Z,74.50
2022-09-03T12:50:10.946Z,73.90
2022-09-03T12:52:43.430Z,76.00
2022-09-03T12:55:29.451Z,75.30
2022-09-03T12:58:11.442Z,76.70
2022-09-03T13:00:47.379Z,73.30
2022-09-03T13:03:20.579Z,72.00
2022-09-03T13:05:55.859Z,72.50
2022-09-03T13:08:27.974Z,71.00
2022-09-03T13:10:59.826Z,72.20
2022-09-03T13:13:32.579Z,73.80
2022-09-03T13:16:30.006Z,74.50
2022-09-03T13:19:02.849Z,75.00
2022-09-03T13:21:42.822Z,74.70
2022-09-03T13:24:40.492Z,72.80
2022-09-03T13:27:20.206Z,77.50
2022-09-03T13:30:11.204Z,75.40
2022-09-03T13:32:59.487Z,75.70
2022-09-03T13:35:35.952Z,72.80
2022-09-03T13:38:15.417Z,73.20
2022-09-03T13:40:50.049Z,73.20
2022-09-03T13:43:30.022Z,75.60
2022-09-03T13:46:04.630Z,74.30
2022-09-03T13:48:56.280Z,73.00
2022-09-03T13:51:29.994Z,75.20
2022-09-03T13:54:13.341Z,71.30
2022-09-03T13:56:57.912Z,71.80
2022-09-03T13:59:37.020Z,73.20
2022-09-03T14:02:25.796Z,74.40
2022-09-03T14:05:06.141Z,74.10
2022-09-03T14:07:52.112Z,74.60
2022-09-03T14:10:29.223Z,74.30
2022-09-03T14:13:08.365Z,72.90
2022-09-03T14:15:45.853Z,72.70
2022-09-03T14:18:25.214Z,74.40
2022-09-03T14:21:01.026Z,71.50
2022-09-03T14:23:37.878Z,72.90
2022-09-03T14:26:16.513Z,72.20
2022-09-03T14:28:50.105Z,72.00
2022-09-03T14:31:29.668Z,73.80
2022-09-03T14:34:08.439Z,72.50
2022-09-03T14:36:42.666Z,73.70
2022-09-03T14:39:26.795Z,72.20
2022-09-03T14:42:38.405Z,71.50
2022-09-03T14:45:27.764Z,71.70
2022-09-03T14:48:24.179Z,71.50
2022-09-03T14:51:07.295Z,70.00
2022-09-03T14:53:59.014Z,70.20
2022-09-03T14:56:47.111Z,71.20
2022-09-03T14:59:59.531Z,70.90
2022-09-03T15:02:54.538Z,70.50
2022-09-03T15:05:42.014Z,71.90
2022-09-03T15:08:22.364Z,72.20
2022-09-03T15:10:57.030Z,71.80
2022-09-03T15:13:29.235Z,71.20
2022-09-03T15:16:14.649Z,72.60
2022-09-03T15:18:58.891Z,73.20
2022-09-03T15:21:38.816Z,75.00
2022-09-03T15:24:18.675Z,70.20
2022-09-03T15:27:05.514Z,71.70
2022-09-03T15:29:50.334Z,71.50
2022-09-03T15:32:33.400Z,69.50
2022-09-03T15:35:09.498Z,70.30
2022-09-03T15:37:48.435Z,71.10
2022-09-03T15:40:29.426Z,73.00
2022-09-03T15:43:05.121Z,73.80
2022-09-03T15:45:40.206Z,73.40
2022-09-03T15:48:22.283Z,72.80
2022-09-03T15:50:59.116Z,73.30
2022-09-03T15:53:34.772Z,72.80
2022-09-03T15:56:21.192Z,71.90
2022-09-03T15:58:59.821Z,74.70
2022-09-03T16:01:36.021Z,74.40
2022-09-03T16:04:24.990Z,74.30
2022-09-03T16:07:01.387Z,77.30
2022-09-03T16:09:41.443Z,76.00
2022-09-03T16:12:26.952Z,75.60
2022-09-03T16:15:02.078Z,74.70
2022-09-03T16:17:35.070Z,75.60
2022-09-03T16:20:09.019Z,78.30
2022-09-03T16:22:46.819Z,77.80
2022-09-03T16:25:23.366Z,77.90
2022-09-03T16:28:07.677Z,78.30
2022-09-03T16:30:55.012Z,79.50
2022-09-03T16:33:31.691Z,79.70
2022-09-03T16:36:16.101Z,80.20
2022-09-03T16:38:54.489Z,82.20
2022-09-03T16:41:28.592Z,82.20
2022-09-03T16:44:10.264Z,80.50
2022-09-03T16:46:49.848Z,80.60
2022-09-03T16:49:38.211Z,81.00
2022-09-03T16:52:18.606Z,80.90
2022-09-03T16:55:06.711Z,81.60
2022-09-03T16:57:50.359Z,81.30
2022-09-03T17:00:22.501Z,81.40
2022-09-03T17:03:26.359Z,82.40
2022-09-03T17:06:27.084Z,82.60
2022-09-03T17:09:04.169Z,83.80
2022-09-03T17:11:47.779Z,84.30
2022-09-03T17:14:40.892Z,84.80
2022-09-03T17:17:24.286Z,84.50
2022-09-03T17:19:58.380Z,85.00
2022-09-03T17:22:41.006Z,85.60
2022-09-03T17:25:21.371Z,87.10
2022-09-03T17:27:53.415Z,88.30
2022-09-03T17:30:28.774Z,88.60
2022-09-03T17:33:32.591Z,88.80
2022-09-03T17:36:16.365Z,90.00
2022-09-03T17:39:18.451Z,90.30
2022-09-03T17:41:53.466Z,90.60
2022-09-03T17:44:40.093Z,90.70
2022-09-03T17:47:33.511Z,90.90
2022-09-03T17:50:14.587Z,91.00
2022-09-03T17:52:49.788Z,91.30
2022-09-03T17:55:27.850Z,91.30
2022-09-03T17:58:14.693Z,91.60
2022-09-03T18:00:52.874Z,91.90
2022-09-03T18:03:25.721Z,92.30
2022-09-03T18:06:01.407Z,92.40
2022-09-03T18:08:42.863Z,92.60
2022-09-03T18:11:13.452Z,92.80
2022-09-03T18:13:51.880Z,93.10
2022-09-03T18:16:27.735Z,93.50
2022-09-03T18:19:01.949Z,93.60
2022-09-03T18:21:54.978Z,94.10
2022-09-03T18:24:51.174Z,94.20
2022-09-03T18:27:40.544Z,94.20
2022-09-03T18:30:29.443Z,94.50
2022-09-03T18:33:18.826Z,94.90
2022-09-03T18:36:06.014Z,95.40
2022-09-03T18:38:55.220Z,95.40
2022-09-03T18:41:59.552Z,95.60
2022-09-03T18:45:18.304Z,95.70
2022-09-03T18:48:19.547Z,95.80
2022-09-03T18:51:11.862Z,96.10
2022-09-03T18:54:15.694Z,96.20
2022-09-03T18:57:06.793Z,96.40
2022-09-03T19:00:18.878Z,96.70
2022-09-03T19:03:29.021Z,97.10
2022-09-03T19:06:24.870Z,97.30
2022-09-03T19:09:22.050Z,97.70
2022-09-03T19:12:17.566Z,97.80
2022-09-03T19:15:12.402Z,98.20
2022-09-03T19:18:19.637Z,98.30
2022-09-03T19:21:17.282Z,98.30
2022-09-03T19:24:03.363Z,98.60
2022-09-03T19:27:00.202Z,98.80
2022-09-03T19:30:00.763Z,99.20
2022-09-03T19:32:56.215Z,99.30
2022-09-03T19:35:49.682Z,99.40
2022-09-03T19:38:46.641Z,99.60
2022-09-03T19:41:40.175Z,99.70
2022-09-03T19:44:57.937Z,99.90
2022-09-03T19:47:55.902Z,99.90
2022-09-03T19:50:48.241Z,99.90
2022-09-03T19:53:37.638Z,99.90
2022-09-03T19:56:29.306Z,99.90
2022-09-03T19:59:18.782Z,99.90
2022-09-03T20:02:07.324Z,99.90
2022-09-03T20:04:58.494Z,99.90
2022-09-03T20:07:44.433Z,99.90
2022-09-03T20:10:24.857Z,99.90
2022-09-03T20:13:08.470Z,99.90
2022-09-03T20:15:48.334Z,99.90
2022-09-03T20:18:26.216Z,99.90
2022-09-03T20:21:03.498Z,99.90
2022-09-03T20:23:37.222Z,99.90
2022-09-03T20:26:23.334Z,99.90
2022-09-03T20:29:12.586Z,99.90
2022-09-03T20:31:48.974Z,99.90
2022-09-03T20:34:44.383Z,99.90
2022-09-03T20:37:25.001Z,99.90
2022-09-03T20:40:06.701Z,99.90
2022-09-03T20:43:00.365Z,99.90
2022-09-03T20:45:34.127Z,99.90
2022-09-03T20:48:11.314Z,99.90
2022-09-03T20:51:03.587Z,99.90
2022-09-03T20:54:03.892Z,99.90
2022-09-03T20:56:38.691Z,99.90
2022-09-03T20:59:17.010Z,99.90
2022-09-03T21:01:55.953Z,99.90
2022-09-03T21:04:43.064Z,99.90
2022-09-03T21:07:24.541Z,99.90
2022-09-03T21:10:02.054Z,99.90
2022-09-03T21:12:41.326Z,99.90
2022-09-03T21:15:16.015Z,99.90
2022-09-03T21:17:57.317Z,99.90
2022-09-03T21:20:34.603Z,99.90
2022-09-03T21:23:15.509Z,99.90
2022-09-03T21:25:50.241Z,99.90
2022-09-03T21:28:36.756Z,99.90
2022-09-03T21:31:14.798Z,99.90
2022-09-03T21:33:49.155Z,99.90
2022-09-03T21:36:26.026Z,99.90
2022-09-03T21:39:01.533Z,99.90
2022-09-03T21:41:34.133Z,99.90
2022-09-03T21:44:08.733Z,99.90
2022-09-03T21:46:41.008Z,99.90
2022-09-03T21:49:11.747Z,99.90
2022-09-03T21:51:45.426Z,99.90
2022-09-03T21:54:22.988Z,99.90
2022-09-03T21:57:14.263Z,99.90
2022-09-03T22:00:12.130Z,99.90
2022-09-03T22:02:40.979Z,99.90
2022-09-03T22:05:09.902Z,99.90
2022-09-03T22:08:09.885Z,99.90
2022-09-03T22:10:49.987Z,99.90
2022-09-03T22:13:27.043Z,99.90
2022-09-03T22:16:03.356Z,99.90
2022-09-03T22:18:38.082Z,99.90
2022-09-03T22:21:14.528Z,99.90
2022-09-03T22:23:56.804Z,99.90
2022-09-03T22:26:38.213Z,99.90
2022-09-03T22:29:15.587Z,99.90
2022-09-03T22:31:57.083Z,99.90
2022-09-03T22:34:42.736Z,99.90
2022-09-03T22:37:23.699Z,99.90
2022-09-03T22:39:54.044Z,99.90
2022-09-03T22:42:46.002Z,99.90
2022-09-03T22:45:40.515Z,99.90
2022-09-03T22:48:21.237Z,99.90
2022-09-03T22:50:56.777Z,99.90
2022-09-03T22:53:47.409Z,99.90
2022-09-03T22:56:22.312Z,99.90
2022-09-03T22:58:57.614Z,99.90
2022-09-03T23:01:31.866Z,99.90
2022-09-03T23:04:08.481Z,99.90
2022-09-03T23:06:44.193Z,99.90
2022-09-03T23:09:21.008Z,99.90
2022-09-03T23:11:54.187Z,99.90
2022-09-03T23:14:28.519Z,99.90
2022-09-03T23:17:00.870Z,99.90
2022-09-03T23:19:51.888Z,99.90
2022-09-03T23:22:24.853Z,99.90
2022-09-03T23:25:02.311Z,99.90
2022-09-03T23:27:36.528Z,99.90
2022-09-03T23:30:08.416Z,99.90
2022-09-03T23:32:37.099Z,99.90
2022-09-03T23:35:16.431Z,99.90
2022-09-03T23:38:09.351Z,99.90
2022-09-03T23:40:47.157Z,99.90
2022-09-03T23:43:51.112Z,99.90
2022-09-03T23:46:27.743Z,99.90
2022-09-03T23:49:09.131Z,99.90
2022-09-03T23:51:48.813Z,99.90
2022-09-03T23:54:27.091Z,99.90
2022-09-03T23:57:18.646Z,99.90
